Latest Weather Observations for Casterton

IDV60801

Issued at 11:02 am EDT Saturday 28 March 2015 (issued every 30 minutes, with the page automatically refreshed every 10 minutes)

About weather observations | Map of weather stations | Latest weather observations for VIC | Other Formats
Station Details ID: 090182 Name: CASTERTON Lat: -37.58 Lon: 141.33 Height: 130.6 m
Data from the previous 72 hours. | See also: Recent months at Casterton
Date/Time
EDT
Temp
°C
App
Temp
°C
Dew
Point
Rel
Hum
%
Delta-T
°C
Wind Press
QNH
hPa
Press
MSL
hPa
Rain
since 9 am
mm
Dir
 
Spd
km/h
Gust
km/h
Spd
kts
Gust
kts
28/11:00am 13.2 11.8 12.3 94 0.5 N 11 17 6 9 1026.2 - 0.0
28/10:30am 12.7 11.4 12.4 98 0.2 N 11 15 6 8 1026.3 - 0.0
28/10:00am 12.1 11.6 11.9 99 0.1 NE 6 9 3 5 1026.4 - 0.0
28/09:30am 11.8 11.0 11.6 99 0.1 N 7 9 4 5 1026.2 - 0.0
28/09:00am 11.3 11.3 11.1 99 0.1 NNW 2 6 1 3 1026.1 1025.9 0.8
28/08:30am 10.9 11.2 10.9 100 0.0 CALM 0 0 0 0 1026.1 - 0.8
28/08:00am 10.7 10.9 10.7 100 0.0 CALM 0 0 0 0 1025.8 - 0.8
28/07:30am 10.6 10.8 10.6 100 0.0 CALM 0 0 0 0 1025.5 - 0.8
28/07:00am 10.5 9.6 10.5 100 0.0 NNE 6 7 3 4 1025.2 - 0.8
28/06:30am 10.5 9.6 10.5 100 0.0 ENE 6 7 3 4 1024.9 - 0.8
28/06:00am 10.6 9.7 10.6 100 0.0 N 6 11 3 6 1024.8 1024.5 0.8
28/05:30am 10.5 10.7 10.5 100 0.0 CALM 0 0 0 0 1024.9 - 0.8
28/05:00am 10.6 10.8 10.6 100 0.0 CALM 0 0 0 0 1025.0 - 0.8
28/04:30am 10.6 10.8 10.6 100 0.0 CALM 0 0 0 0 1025.2 - 0.8
28/04:00am 10.4 9.4 10.4 100 0.0 WNW 6 7 3 4 1025.3 - 0.8
28/03:30am 10.2 10.3 10.0 99 0.1 CALM 0 0 0 0 1025.4 - 0.8
28/03:00am 10.4 9.2 10.2 99 0.1 N 7 9 4 5 1025.5 1025.2 0.8
28/02:30am 10.4 10.5 10.2 99 0.1 CALM 0 0 0 0 1025.9 - 0.8
28/02:00am 10.3 10.4 10.1 99 0.1 CALM 0 0 0 0 1026.1 - 0.6
28/01:30am 9.5 9.4 9.4 99 0.0 CALM 0 4 0 2 1026.1 - 0.6
28/01:00am 8.9 8.6 8.8 99 0.0 CALM 0 0 0 0 1026.0 - 0.6
28/12:30am 7.9 7.0 7.8 99 0.0 NW 2 6 1 3 1026.1 - 0.6
28/12:00am 8.5 8.1 8.4 99 0.0 CALM 0 0 0 0 1026.2 1026.0 0.6
 
Date/Time
EDT
Temp
°C
App
Temp
°C
Dew
Point
Rel
Hum
%
Delta-T
°C
Wind Press
QNH
hPa
Press
MSL
hPa
Rain
since 9 am
mm
Dir
 
Spd
km/h
Gust
km/h
Spd
kts
Gust
kts
27/11:30pm 9.2 8.6 9.1 99 0.0 NW 2 6 1 3 1026.3 - 0.6
27/11:00pm 9.9 8.8 9.8 99 0.1 SSW 6 7 3 4 1026.4 - 0.6
27/10:30pm 10.2 8.9 10.0 99 0.1 WSW 7 9 4 5 1026.7 - 0.6
27/10:00pm 11.0 9.9 10.8 99 0.1 WSW 7 9 4 5 1026.6 - 0.6
27/09:30pm 10.9 9.8 10.6 98 0.2 SSW 7 9 4 5 1026.4 - 0.6
27/09:00pm 10.9 9.4 10.7 99 0.1 SW 9 11 5 6 1026.5 1026.3 0.6
27/08:30pm 10.4 9.1 10.1 98 0.2 SW 7 9 4 5 1026.1 - 0.6
27/08:00pm 11.3 10.3 11.0 98 0.2 WSW 7 9 4 5 1025.9 - 0.6
27/07:30pm 11.7 10.8 11.4 98 0.2 SSW 7 9 4 5 1025.7 - 0.6
27/07:00pm 12.5 10.7 12.2 98 0.2 SSW 13 19 7 10 1025.5 - 0.6
27/06:30pm 12.6 9.5 12.3 98 0.2 S 20 26 11 14 1025.4 - 0.4
27/06:00pm 13.1 11.1 12.8 98 0.2 SW 15 20 8 11 1025.4 1025.1 0.4
27/05:30pm 13.6 12.6 13.3 98 0.2 SW 11 15 6 8 1025.2 - 0.4
27/05:00pm 13.3 11.4 13.0 98 0.2 SW 15 24 8 13 1025.2 - 0.2
27/04:30pm 15.1 12.2 11.1 77 2.1 WSW 17 22 9 12 1025.0 - 0.0
27/04:00pm 14.5 11.5 12.0 85 1.4 SW 19 28 10 15 1025.1 - 0.0
27/03:30pm 13.9 11.7 13.4 97 0.3 SSW 17 26 9 14 1025.2 - 0.0
27/03:00pm 13.6 12.6 13.3 98 0.2 S 11 17 6 9 1025.4 1025.1 0.0
27/02:30pm 14.9 11.5 11.1 78 2.0 W 20 26 11 14 1025.5 - 0.0
27/02:00pm 13.6 12.2 13.3 98 0.2 WSW 13 20 7 11 1025.9 - 0.0
27/01:30pm 15.1 11.8 10.9 76 2.2 SW 19 30 10 16 1026.1 - 0.0
27/01:00pm 15.1 13.3 10.9 76 2.2 SW 11 17 6 9 1026.4 - 0.0
27/12:30pm 13.1 10.3 11.5 90 0.9 SSW 17 26 9 14 1026.7 - 0.0
27/12:00pm 14.2 10.8 10.4 78 2.0 SW 19 28 10 15 1026.7 1026.5 0.0
27/11:30am 13.4 10.9 10.9 85 1.3 SSW 15 19 8 10 1026.9 - 0.0
27/11:00am 13.1 10.5 10.6 85 1.3 SW 15 22 8 12 1026.8 - 0.0
27/10:30am 12.5 9.3 11.4 93 0.6 SW 19 28 10 15 1026.7 - 0.0
27/10:00am 12.3 10.8 12.0 98 0.2 WSW 11 17 6 9 1026.4 - 0.0
27/09:30am 11.4 9.3 11.2 99 0.1 WSW 13 19 7 10 1026.2 - 0.0
27/09:00am 10.2 7.8 10.0 99 0.1 W 13 20 7 11 1026.1 1025.9 3.6
27/08:30am 9.8 7.7 9.7 99 0.1 W 11 15 6 8 1026.0 - 3.6
27/08:00am 9.8 7.7 9.7 99 0.1 W 11 15 6 8 1025.6 - 3.6
27/07:30am 9.7 7.2 9.6 99 0.1 W 13 17 7 9 1025.3 - 3.6
27/07:00am 10.0 7.9 9.9 99 0.1 WNW 11 13 6 7 1024.9 - 3.4
27/06:30am 10.0 7.9 9.9 99 0.1 WSW 11 15 6 8 1024.7 - 3.4
27/06:00am 10.2 7.0 10.0 99 0.1 WSW 17 22 9 12 1024.4 1024.1 3.4
27/05:30am 10.3 7.9 10.1 99 0.1 W 13 17 7 9 1024.3 - 3.2
27/05:00am 10.4 8.0 10.2 99 0.1 W 13 17 7 9 1024.2 - 3.2
27/04:30am 10.6 8.3 10.4 99 0.1 W 13 17 7 9 1024.1 - 3.2
27/04:00am 10.6 7.9 10.4 99 0.1 W 15 20 8 11 1024.0 - 3.2
27/03:30am 10.4 8.0 10.2 99 0.1 W 13 17 7 9 1024.0 - 3.0
27/03:00am 10.1 7.7 9.9 99 0.1 W 13 17 7 9 1024.0 1023.7 2.8
27/02:30am 9.7 6.8 9.6 99 0.1 W 15 19 8 10 1023.9 - 2.8
27/02:00am 9.8 7.7 9.7 99 0.1 WNW 11 17 6 9 1023.9 - 2.8
27/01:30am 9.7 7.6 9.6 99 0.1 W 11 15 6 8 1023.7 - 2.8
27/01:00am 10.2 8.2 10.0 99 0.1 W 11 15 6 8 1023.7 - 2.8
27/12:30am 10.5 8.2 10.3 99 0.1 W 13 17 7 9 1023.7 - 2.8
27/12:00am 10.6 7.9 10.4 99 0.1 W 15 20 8 11 1023.8 1023.5 2.8
 
Date/Time
EDT
Temp
°C
App
Temp
°C
Dew
Point
Rel
Hum
%
Delta-T
°C
Wind Press
QNH
hPa
Press
MSL
hPa
Rain
since 9 am
mm
Dir
 
Spd
km/h
Gust
km/h
Spd
kts
Gust
kts
26/11:30pm 10.7 8.0 10.5 99 0.1 W 15 19 8 10 1023.8 - 2.8
26/11:00pm 10.7 7.7 10.5 99 0.1 W 17 24 9 13 1023.6 - 2.8
26/10:30pm 10.9 7.9 10.7 99 0.1 W 17 26 9 14 1023.6 - 2.8
26/10:00pm 10.9 7.9 10.7 99 0.1 W 17 24 9 13 1023.3 - 2.8
26/09:30pm 11.2 8.3 11.0 99 0.1 W 17 24 9 13 1023.0 - 2.8
26/09:00pm 11.4 8.2 11.2 99 0.1 W 19 28 10 15 1022.7 1022.4 2.8
26/08:30pm 11.4 8.0 11.2 99 0.1 W 20 32 11 17 1022.4 - 2.6
26/08:00pm 11.6 8.2 11.3 98 0.2 W 20 28 11 15 1022.0 - 2.4
26/07:30pm 11.8 7.3 11.5 98 0.2 W 26 39 14 21 1021.5 - 2.4
26/07:00pm 11.7 7.2 11.4 98 0.2 W 26 41 14 22 1021.2 - 2.2
26/06:45pm 11.7 6.8 11.4 98 0.2 W 28 48 15 26 1021.0 - 2.2
26/06:30pm 11.6 6.7 11.3 98 0.2 W 28 41 15 22 1020.9 - 2.2
26/06:19pm 11.5 6.6 11.2 98 0.2 W 28 46 15 25 1020.8 - 2.2
26/06:00pm 11.4 6.4 11.1 98 0.2 W 28 39 15 21 1020.7 1020.4 2.2
26/05:30pm 11.6 6.7 11.3 98 0.2 W 28 46 15 25 1020.4 - 2.2
26/05:00pm 11.6 6.7 11.3 98 0.2 W 28 48 15 26 1020.3 - 2.0
26/04:30pm 11.5 6.2 11.2 98 0.2 W 30 46 16 25 1019.9 - 2.0
26/04:08pm 11.8 6.1 11.3 97 0.3 W 32 50 17 27 1019.7 - 1.4
26/04:00pm 12.8 6.7 10.3 85 1.3 W 33 46 18 25 1019.4 - 1.4
26/03:40pm 12.6 7.1 10.5 87 1.1 W 30 48 16 26 1019.5 - 1.4
26/03:30pm 12.8 7.5 12.5 98 0.2 W 32 46 17 25 1019.6 - 1.4
26/03:02pm 11.9 6.0 11.0 94 0.5 W 33 54 18 29 1019.5 - 1.2
26/03:00pm 12.0 6.1 11.1 94 0.5 W 33 48 18 26 1019.5 1019.3 1.2
26/02:45pm 11.4 5.5 11.1 98 0.2 W 33 54 18 29 1019.5 - 1.2
26/02:30pm 12.4 6.4 10.1 86 1.2 W 32 44 17 24 1019.4 - 0.6
26/02:00pm 12.9 6.1 9.4 79 1.8 W 35 59 19 32 1019.5 - 0.6
26/01:30pm 12.1 6.2 11.0 93 0.6 W 33 59 18 32 1019.6 - 0.6
26/01:00pm 11.5 5.8 9.9 90 0.8 W 30 52 16 28 1019.7 - 0.4
26/12:48pm 10.9 2.9 7.6 80 1.6 W 39 72 21 39 1019.9 - 0.4
26/12:30pm 13.6 6.7 7.2 65 3.1 W 33 52 18 28 1019.4 - 0.2
26/12:00pm 11.7 4.8 7.2 74 2.2 W 33 52 18 28 1019.4 1019.2 0.2
26/11:51am 13.2 5.9 5.6 60 3.6 W 33 52 18 28 1019.4 - 0.2
26/11:30am 12.5 5.8 7.2 70 2.6 WNW 32 46 17 25 1019.4 - 0.0
26/11:14am 12.4 6.4 7.1 70 2.6 WNW 28 50 15 27 1019.3 - 0.0
26/11:00am 12.3 6.4 7.4 72 2.4 WNW 28 41 15 22 1019.3 - 0.0
26/10:30am 11.0 6.5 8.4 84 1.3 WNW 22 30 12 16 1019.3 - 0.0
26/10:00am 10.1 5.9 8.2 88 0.9 WNW 20 30 11 16 1019.0 - 0.0
26/09:30am 8.6 3.6 8.2 97 0.2 NW 24 32 13 17 1018.9 - 0.0
26/09:00am 7.4 3.5 7.1 98 0.1 NW 17 22 9 12 1018.7 1018.4 6.2
26/08:30am 7.2 4.0 6.9 98 0.1 WNW 13 19 7 10 1018.7 - 6.2
26/08:00am 6.0 2.9 5.7 98 0.1 NW 11 17 6 9 1018.2 - 6.2
26/07:30am 6.8 3.1 6.5 98 0.1 NNW 15 20 8 11 1017.7 - 6.0
26/07:00am 6.6 2.5 6.3 98 0.1 WNW 17 20 9 11 1018.0 - 6.0
26/06:30am 6.4 2.3 6.1 98 0.1 WNW 17 20 9 11 1017.4 - 5.8
26/06:00am 6.3 2.9 6.0 98 0.1 WNW 13 19 7 10 1017.5 1017.2 5.8
26/05:30am 6.2 2.4 5.9 98 0.1 WNW 15 19 8 10 1016.7 - 5.8
26/05:00am 6.8 3.1 6.5 98 0.1 WNW 15 20 8 11 1016.6 - 5.8
26/04:30am 7.5 3.1 7.2 98 0.1 WNW 20 30 11 16 1016.5 - 5.4
26/04:00am 7.2 2.9 6.9 98 0.1 WNW 19 26 10 14 1016.0 - 5.4
26/03:30am 7.3 3.4 7.0 98 0.1 WNW 17 24 9 13 1015.9 - 5.4
26/03:00am 7.0 2.6 6.7 98 0.1 NW 19 24 10 13 1015.9 1015.6 5.4
26/02:30am 7.1 3.5 6.8 98 0.1 NW 15 20 8 11 1016.0 - 5.4
26/02:00am 7.3 3.8 7.0 98 0.1 WNW 15 19 8 10 1016.1 - 5.4
26/01:30am 7.6 3.7 7.3 98 0.1 NW 17 24 9 13 1015.9 - 5.4
26/01:00am 7.5 4.4 7.2 98 0.1 NW 13 17 7 9 1016.0 - 5.4
26/12:30am 7.4 4.3 7.1 98 0.1 NW 13 19 7 10 1015.8 - 5.4
26/12:00am 7.9 4.9 7.6 98 0.1 NW 13 17 7 9 1015.9 1015.6 5.2
 
Date/Time
EDT
Temp
°C
App
Temp
°C
Dew
Point
Rel
Hum
%
Delta-T
°C
Wind Press
QNH
hPa
Press
MSL
hPa
Rain
since 9 am
mm
Dir
 
Spd
km/h
Gust
km/h
Spd
kts
Gust
kts
25/11:30pm 8.6 5.0 8.3 98 0.1 NW 17 24 9 13 1015.9 - 5.2
25/11:00pm 8.6 5.7 8.3 98 0.1 NNW 13 20 7 11 1015.7 - 5.2
25/10:30pm 9.0 5.9 8.7 98 0.1 NW 15 22 8 12 1015.5 - 5.2
25/10:00pm 9.1 6.4 8.8 98 0.1 NW 13 17 7 9 1015.4 - 5.0
25/09:30pm 8.9 5.7 8.6 98 0.1 NNW 15 20 8 11 1015.2 - 5.0
25/09:00pm 8.8 5.2 8.5 98 0.1 WNW 17 26 9 14 1015.2 1014.9 4.4
25/08:30pm 9.1 4.7 8.8 98 0.1 W 22 33 12 18 1014.6 - 3.6
25/08:00pm 9.2 3.3 8.9 98 0.1 WSW 30 43 16 23 1014.7 - 3.0
25/07:41pm 9.9 4.1 9.6 98 0.2 WSW 30 50 16 27 1014.4 - 2.0
25/07:30pm 10.8 6.4 10.5 98 0.2 WSW 24 35 13 19 1014.2 - 1.0
25/07:00pm 14.1 7.3 9.3 73 2.5 WNW 35 61 19 33 1012.9 - 0.0
25/06:48pm 17.3 11.0 5.9 47 5.6 WNW 28 46 15 25 1012.2 - 0.0
25/06:30pm 17.8 10.4 5.1 43 6.1 WNW 33 48 18 26 1011.7 - 0.0
25/06:11pm 18.1 9.8 4.3 40 6.6 NW 37 56 20 30 1011.6 - 0.0
25/06:00pm 18.6 10.9 3.6 37 7.1 NW 33 44 18 24 1011.5 1011.2 0.0
25/05:30pm 18.6 11.6 4.0 38 7.0 NNW 30 41 16 22 1011.7 - 0.0
25/05:00pm 18.2 11.6 4.4 40 6.6 NNW 28 44 15 24 1011.8 - 0.0
25/04:30pm 19.8 13.4 5.1 38 7.2 NW 28 41 15 22 1012.2 - 0.0
25/04:00pm 17.2 11.0 4.5 43 6.0 NNW 26 39 14 21 1013.0 - 0.0
25/03:30pm 17.3 10.8 4.6 43 6.1 NNW 28 41 15 22 1013.4 - 0.0
25/03:12pm 18.1 11.2 4.7 41 6.4 N 30 54 16 29 1013.6 - 0.0
25/03:00pm 18.3 13.1 5.5 43 6.3 NNW 22 30 12 16 1013.9 1013.6 0.0
25/02:30pm 16.9 10.4 4.6 44 5.9 NW 28 41 15 22 1014.5 - 0.0
25/02:00pm 18.2 12.4 4.4 40 6.6 NNW 24 41 13 22 1015.0 - 0.0
25/01:30pm 16.4 10.5 4.1 44 5.8 NNW 24 35 13 19 1015.6 - 0.0
25/01:00pm 16.4 11.1 5.1 47 5.4 NNW 22 32 12 17 1016.1 - 0.0
25/12:30pm 14.9 9.1 4.6 50 4.8 NNW 24 39 13 21 1016.6 - 0.0
25/12:00pm 14.8 9.5 4.8 51 4.7 NNW 22 32 12 17 1017.0 1016.7 0.0
25/11:30am 14.7 9.2 4.1 49 4.9 NNW 22 32 12 17 1017.3 - 0.0

Other Formats:

Comma delimited format used in spreadsheet applications
http://www.bom.gov.au/fwo/IDV60801/IDV60801.95825.axf

JavaScript Object Notation format (JSON) in row-major order
http://www.bom.gov.au/fwo/IDV60801/IDV60801.95825.json